createdAt,value
2022-12-18T00:00:19.509Z,96521
2022-12-18T00:01:28.287Z,96522
2022-12-18T00:02:38.012Z,96523
2022-12-18T00:03:47.746Z,96521
2022-12-18T00:04:57.275Z,96520
2022-12-18T00:06:05.931Z,96517
2022-12-18T00:07:14.606Z,96515
2022-12-18T00:08:24.292Z,96517
2022-12-18T00:09:39.879Z,96517
2022-12-18T00:10:43.656Z,96515
2022-12-18T00:11:53.316Z,96511
2022-12-18T00:13:05.163Z,96511
2022-12-18T00:14:13.653Z,96501
2022-12-18T00:15:23.364Z,96506
2022-12-18T00:16:33.081Z,96502
2022-12-18T00:17:41.739Z,96500
2022-12-18T00:18:50.392Z,96504
2022-12-18T00:20:00.152Z,96500
2022-12-18T00:21:09.786Z,96502
2022-12-18T00:22:19.454Z,96507
2022-12-18T00:23:29.114Z,96506
2022-12-18T00:24:37.788Z,96512
2022-12-18T00:25:47.466Z,96516
2022-12-18T00:26:55.280Z,96517
2022-12-18T00:28:04.946Z,96512
2022-12-18T00:29:13.624Z,96514
2022-12-18T00:30:22.342Z,96511
2022-12-18T00:31:32.122Z,96507
2022-12-18T00:32:40.753Z,96506
2022-12-18T00:33:51.204Z,96508
2022-12-18T00:35:00.072Z,96513
2022-12-18T00:36:07.738Z,96517
2022-12-18T00:37:20.161Z,96521
2022-12-18T00:38:27.220Z,96524
2022-12-18T00:39:36.881Z,96526
2022-12-18T00:40:46.564Z,96529
2022-12-18T00:41:54.281Z,96532
2022-12-18T00:43:02.945Z,96537
2022-12-18T00:44:12.658Z,96540
2022-12-18T00:45:21.316Z,96539
2022-12-18T00:46:29.985Z,96536
2022-12-18T00:47:39.673Z,96539
2022-12-18T00:48:48.326Z,96534
2022-12-18T00:49:57.036Z,96533
2022-12-18T00:51:05.703Z,96531
2022-12-18T00:52:14.609Z,96531
2022-12-18T00:53:24.276Z,96535
2022-12-18T00:54:31.960Z,96534
2022-12-18T00:55:41.671Z,96535
2022-12-18T00:56:50.331Z,96540
2022-12-18T00:57:59.010Z,96545
2022-12-18T00:59:07.731Z,96542
2022-12-18T01:00:17.407Z,96541
2022-12-18T01:01:27.182Z,96543
2022-12-18T01:02:34.903Z,96540
2022-12-18T01:03:44.512Z,96544
2022-12-18T01:04:53.259Z,96540
2022-12-18T01:06:00.940Z,96542
2022-12-18T01:07:09.740Z,96538
2022-12-18T01:08:18.398Z,96537
2022-12-18T01:09:27.124Z,96541
2022-12-18T01:10:37.791Z,96541
2022-12-18T01:11:46.476Z,96538
2022-12-18T01:12:56.198Z,96544
2022-12-18T01:14:05.891Z,96546
2022-12-18T01:15:13.550Z,96551
2022-12-18T01:16:22.267Z,96548
2022-12-18T01:17:30.906Z,96550
2022-12-18T01:18:39.887Z,96552
2022-12-18T01:19:49.562Z,96558
2022-12-18T01:20:57.274Z,96564
2022-12-18T01:22:05.978Z,96564
2022-12-18T01:23:15.650Z,96565
2022-12-18T01:24:24.320Z,96567
2022-12-18T01:25:33.037Z,96572
2022-12-18T01:26:41.732Z,96575
2022-12-18T01:27:50.404Z,96579
2022-12-18T01:29:00.091Z,96575
2022-12-18T01:30:08.786Z,96577
2022-12-18T01:31:17.549Z,96582
2022-12-18T01:32:27.210Z,96582
2022-12-18T01:33:36.218Z,96588
2022-12-18T01:34:45.698Z,96590
2022-12-18T01:35:55.372Z,96588
2022-12-18T01:37:04.042Z,96589
2022-12-18T01:38:13.773Z,96593
2022-12-18T01:39:23.458Z,96594
2022-12-18T01:40:32.130Z,96594
2022-12-18T01:41:41.854Z,96595
2022-12-18T01:42:49.519Z,96593
2022-12-18T01:43:58.292Z,96593
2022-12-18T01:45:06.892Z,96595
2022-12-18T01:46:15.631Z,96603
2022-12-18T01:47:24.261Z,96602
2022-12-18T01:48:32.946Z,96605
2022-12-18T01:49:41.612Z,96601
2022-12-18T01:50:51.301Z,96597
2022-12-18T01:51:59.971Z,96598
2022-12-18T01:53:08.729Z,96596
2022-12-18T01:54:17.451Z,96598
2022-12-18T01:55:26.139Z,96600
2022-12-18T01:56:35.813Z,96597
2022-12-18T01:57:43.467Z,96602
2022-12-18T01:58:52.187Z,96602
2022-12-18T02:00:01.886Z,96604
2022-12-18T02:01:11.646Z,96603
2022-12-18T02:02:21.397Z,96599
2022-12-18T02:03:30.003Z,96598
2022-12-18T02:04:38.732Z,96598
2022-12-18T02:05:49.412Z,96604
2022-12-18T02:06:58.092Z,96599
2022-12-18T02:08:07.750Z,96597
2022-12-18T02:09:17.531Z,96592
2022-12-18T02:10:27.295Z,96590
2022-12-18T02:11:35.954Z,96593
2022-12-18T02:12:44.746Z,96587
2022-12-18T02:13:55.317Z,96588
2022-12-18T02:15:04.976Z,96585
2022-12-18T02:16:13.715Z,96581
2022-12-18T02:17:22.382Z,96584
2022-12-18T02:18:32.096Z,96579
2022-12-18T02:19:39.771Z,96579
2022-12-18T02:20:48.441Z,96574
2022-12-18T02:21:58.149Z,96576
2022-12-18T02:23:07.808Z,96580
2022-12-18T02:24:17.495Z,96580
2022-12-18T02:25:26.198Z,96584
2022-12-18T02:26:33.874Z,96585
2022-12-18T02:27:42.574Z,96581
2022-12-18T02:28:51.414Z,96585
2022-12-18T02:30:00.976Z,96587
2022-12-18T02:31:10.674Z,96585
2022-12-18T02:32:19.317Z,96585
2022-12-18T02:33:29.015Z,96588
2022-12-18T02:34:36.698Z,96580
2022-12-18T02:35:45.340Z,96580
2022-12-18T02:36:55.050Z,96582
2022-12-18T02:38:01.741Z,96584
2022-12-18T02:39:10.437Z,96587
2022-12-18T02:40:20.110Z,96583
2022-12-18T02:41:28.833Z,96581
2022-12-18T02:42:38.511Z,96583
2022-12-18T02:43:47.190Z,96579
2022-12-18T02:44:56.992Z,96582
2022-12-18T02:46:06.603Z,96581
2022-12-18T02:47:14.230Z,96579
2022-12-18T02:48:22.884Z,96577
2022-12-18T02:49:31.555Z,96572
2022-12-18T02:50:41.285Z,96565
2022-12-18T02:51:51.020Z,96567
2022-12-18T02:52:59.718Z,96572
2022-12-18T02:54:09.402Z,96572
2022-12-18T02:55:18.139Z,96575
2022-12-18T02:56:26.827Z,96583
2022-12-18T02:57:36.498Z,96579
2022-12-18T02:58:45.161Z,96584
2022-12-18T02:59:54.839Z,96585
2022-12-18T03:01:03.666Z,96582
2022-12-18T03:02:13.409Z,96584
2022-12-18T03:03:23.040Z,96586
2022-12-18T03:04:30.676Z,96582
2022-12-18T03:05:39.342Z,96581
2022-12-18T03:06:49.025Z,96586
2022-12-18T03:07:57.740Z,96588
2022-12-18T03:09:07.421Z,96587
2022-12-18T03:10:17.122Z,96586
2022-12-18T03:11:25.782Z,96587
2022-12-18T03:12:33.536Z,96580
2022-12-18T03:13:41.589Z,96578
2022-12-18T03:14:50.981Z,96578
2022-12-18T03:16:00.699Z,96576
2022-12-18T03:17:08.481Z,96577
2022-12-18T03:18:17.021Z,96573
2022-12-18T03:19:26.705Z,96572
2022-12-18T03:20:35.368Z,96575
2022-12-18T03:21:45.053Z,96575
2022-12-18T03:22:53.745Z,96571
2022-12-18T03:24:02.443Z,96563
2022-12-18T03:25:13.165Z,96569
2022-12-18T03:26:21.831Z,96568
2022-12-18T03:27:31.524Z,96573
2022-12-18T03:28:40.207Z,96574
2022-12-18T03:29:48.943Z,96571
2022-12-18T03:30:58.724Z,96573
2022-12-18T03:32:08.350Z,96571
2022-12-18T03:33:18.174Z,96562
2022-12-18T03:34:27.740Z,96561
2022-12-18T03:35:36.429Z,96564
2022-12-18T03:36:45.138Z,96569
2022-12-18T03:37:53.973Z,96566
2022-12-18T03:39:03.651Z,96578
2022-12-18T03:40:13.330Z,96567
2022-12-18T03:41:21.997Z,96573
2022-12-18T03:42:31.730Z,96580
2022-12-18T03:43:41.826Z,96583
2022-12-18T03:44:50.130Z,96581
2022-12-18T03:45:58.801Z,96582
2022-12-18T03:47:08.452Z,96583
2022-12-18T03:48:18.152Z,96580
2022-12-18T03:49:27.968Z,96587
2022-12-18T03:50:37.531Z,96588
2022-12-18T03:51:47.199Z,96582
2022-12-18T03:52:56.893Z,96582
2022-12-18T03:54:04.566Z,96588
2022-12-18T03:55:13.274Z,96583
2022-12-18T03:56:21.945Z,96582
2022-12-18T03:57:30.667Z,96583
2022-12-18T03:58:40.459Z,96582
2022-12-18T03:59:49.142Z,96569
2022-12-18T04:00:57.849Z,96580
2022-12-18T04:02:07.687Z,96572
2022-12-18T04:03:15.285Z,96575
2022-12-18T04:04:25.919Z,96578
2022-12-18T04:05:34.736Z,96577
2022-12-18T04:06:44.436Z,96581
2022-12-18T04:07:54.106Z,96585
2022-12-18T04:09:01.770Z,96586
2022-12-18T04:10:10.499Z,96589
2022-12-18T04:11:20.212Z,96591
2022-12-18T04:12:28.889Z,96588
2022-12-18T04:13:37.944Z,96587
2022-12-18T04:14:47.258Z,96583
2022-12-18T04:15:55.942Z,96586
2022-12-18T04:17:05.616Z,96587
2022-12-18T04:18:13.273Z,96585
2022-12-18T04:19:21.955Z,96585
2022-12-18T04:20:31.633Z,96587
2022-12-18T04:21:41.430Z,96586
2022-12-18T04:22:50.027Z,96585
2022-12-18T04:23:59.709Z,96588
2022-12-18T04:25:08.381Z,96586
2022-12-18T04:26:18.077Z,96585
2022-12-18T04:27:26.735Z,96588
2022-12-18T04:28:35.488Z,96590
2022-12-18T04:29:45.182Z,96588
2022-12-18T04:30:52.939Z,96598
2022-12-18T04:32:02.602Z,96594
2022-12-18T04:33:12.315Z,96591
2022-12-18T04:34:20.996Z,96593
2022-12-18T04:35:30.655Z,96593
2022-12-18T04:36:39.407Z,96602
2022-12-18T04:37:49.264Z,96595
2022-12-18T04:38:58.883Z,96597
2022-12-18T04:40:07.574Z,96597
2022-12-18T04:41:16.242Z,96595
2022-12-18T04:42:24.944Z,96595
2022-12-18T04:43:33.608Z,96593
2022-12-18T04:44:43.286Z,96598
2022-12-18T04:45:50.973Z,96597
2022-12-18T04:46:59.639Z,96589
2022-12-18T04:48:09.317Z,96590
2022-12-18T04:49:17.999Z,96589
2022-12-18T04:50:27.696Z,96593
2022-12-18T04:51:36.403Z,96599
2022-12-18T04:52:46.111Z,96606
2022-12-18T04:53:54.943Z,96611
2022-12-18T04:55:04.482Z,96611
2022-12-18T04:56:14.150Z,96618
2022-12-18T04:57:22.874Z,96614
2022-12-18T04:58:31.537Z,96616
2022-12-18T04:59:41.227Z,96616
2022-12-18T05:00:49.924Z,96613
2022-12-18T05:01:59.725Z,96612
2022-12-18T05:03:08.348Z,96605
2022-12-18T05:04:18.096Z,96611
2022-12-18T05:05:27.723Z,96612
2022-12-18T05:06:35.357Z,96613
2022-12-18T05:07:44.014Z,96614
2022-12-18T05:08:53.744Z,96615
2022-12-18T05:10:02.559Z,96615
2022-12-18T05:11:12.113Z,96618
2022-12-18T05:12:22.777Z,96618
2022-12-18T05:13:31.449Z,96622
2022-12-18T05:14:41.181Z,96622
2022-12-18T05:15:48.901Z,96626
2022-12-18T05:17:00.978Z,96624
2022-12-18T05:18:08.198Z,96626
2022-12-18T05:19:16.875Z,96628
2022-12-18T05:20:25.655Z,96626
2022-12-18T05:21:34.352Z,96631
2022-12-18T05:22:43.028Z,96629
2022-12-18T05:23:52.734Z,96628
2022-12-18T05:25:01.422Z,96626
2022-12-18T05:26:11.236Z,96629
2022-12-18T05:27:20.787Z,96631
2022-12-18T05:28:29.455Z,96624
2022-12-18T05:29:38.145Z,96624
2022-12-18T05:30:46.927Z,96624
2022-12-18T05:31:56.666Z,96623
2022-12-18T05:33:06.313Z,96621
2022-12-18T05:34:14.983Z,96621
2022-12-18T05:35:23.694Z,96628
2022-12-18T05:36:33.366Z,96630
2022-12-18T05:37:43.116Z,96628
2022-12-18T05:38:50.738Z,96630
2022-12-18T05:39:58.387Z,96632
2022-12-18T05:41:06.070Z,96636
2022-12-18T05:42:15.839Z,96638
2022-12-18T05:43:25.411Z,96643
2022-12-18T05:44:34.099Z,96644
2022-12-18T05:45:43.777Z,96643
2022-12-18T05:46:52.522Z,96638
2022-12-18T05:48:02.227Z,96640
2022-12-18T05:49:10.941Z,96638
2022-12-18T05:50:19.764Z,96637
2022-12-18T05:51:29.479Z,96640
2022-12-18T05:52:37.165Z,96638
2022-12-18T05:53:45.848Z,96641
2022-12-18T05:54:54.537Z,96643
2022-12-18T05:56:02.236Z,96640
2022-12-18T05:57:10.900Z,96643
2022-12-18T05:58:19.697Z,96643
2022-12-18T05:59:29.255Z,96642
2022-12-18T06:00:38.967Z,96644
2022-12-18T06:01:46.740Z,96651
2022-12-18T06:02:56.463Z,96648
2022-12-18T06:04:06.032Z,96650
2022-12-18T06:05:13.694Z,96651
2022-12-18T06:06:22.398Z,96653
2022-12-18T06:07:32.102Z,96652
2022-12-18T06:08:46.137Z,96650
2022-12-18T06:09:51.473Z,96648
2022-12-18T06:10:59.138Z,96655
2022-12-18T06:12:07.905Z,96655
2022-12-18T06:13:17.603Z,96653
2022-12-18T06:14:25.405Z,96651
2022-12-18T06:15:33.974Z,96650
2022-12-18T06:16:42.666Z,96652
2022-12-18T06:17:52.401Z,96654
2022-12-18T06:19:02.075Z,96659
2022-12-18T06:20:09.766Z,96656
2022-12-18T06:21:19.438Z,96649
2022-12-18T06:22:29.225Z,96653
2022-12-18T06:23:38.230Z,96643
2022-12-18T06:24:46.662Z,96647
2022-12-18T06:25:55.368Z,96650
2022-12-18T06:27:04.074Z,96649
2022-12-18T06:28:13.746Z,96647
2022-12-18T06:29:21.433Z,96655
2022-12-18T06:30:31.216Z,96656
2022-12-18T06:31:40.863Z,96654
2022-12-18T06:32:51.788Z,96662
2022-12-18T06:33:59.217Z,96661
2022-12-18T06:35:08.911Z,96662
2022-12-18T06:36:18.600Z,96661
2022-12-18T06:37:28.282Z,96661
2022-12-18T06:38:34.932Z,96657
2022-12-18T06:39:43.599Z,96667
2022-12-18T06:40:53.316Z,96666
2022-12-18T06:42:01.989Z,96668
2022-12-18T06:43:10.702Z,96672
2022-12-18T06:44:20.432Z,96674
2022-12-18T06:45:29.139Z,96673
2022-12-18T06:46:38.915Z,96677
2022-12-18T06:47:48.458Z,96672
2022-12-18T06:48:58.137Z,96670
2022-12-18T06:50:06.836Z,96676
2022-12-18T06:51:15.497Z,96677
2022-12-18T06:52:25.210Z,96675
2022-12-18T06:53:33.874Z,96681
2022-12-18T06:54:43.545Z,96673
2022-12-18T06:55:53.430Z,96681
2022-12-18T06:57:02.115Z,96684
2022-12-18T06:58:11.816Z,96685
2022-12-18T06:59:20.514Z,96685
2022-12-18T07:00:29.177Z,96687
2022-12-18T07:01:39.034Z,96691
2022-12-18T07:02:47.771Z,96687
2022-12-18T07:03:56.263Z,96690
2022-12-18T07:05:10.430Z,96694
2022-12-18T07:06:14.574Z,96693
2022-12-18T07:07:24.265Z,96692
2022-12-18T07:08:31.919Z,96694
2022-12-18T07:09:41.632Z,96699
2022-12-18T07:10:55.864Z,96707
2022-12-18T07:12:01.019Z,96710
2022-12-18T07:13:08.696Z,96706
2022-12-18T07:14:18.341Z,96705
2022-12-18T07:15:27.098Z,96703
2022-12-18T07:16:36.817Z,96704
2022-12-18T07:17:44.438Z,96709
2022-12-18T07:18:54.328Z,96713
2022-12-18T07:20:03.872Z,96711
2022-12-18T07:21:12.563Z,96707
2022-12-18T07:22:21.239Z,96706
2022-12-18T07:23:30.914Z,96707
2022-12-18T07:24:40.613Z,96711
2022-12-18T07:25:50.320Z,96711
2022-12-18T07:26:59.982Z,96723
2022-12-18T07:28:12.834Z,96724
2022-12-18T07:29:20.288Z,96728
2022-12-18T07:30:27.955Z,96720
2022-12-18T07:31:36.633Z,96724
2022-12-18T07:32:45.353Z,96724
2022-12-18T07:33:54.012Z,96724
2022-12-18T07:35:03.827Z,96724
2022-12-18T07:36:13.384Z,96727
2022-12-18T07:37:22.056Z,96725
2022-12-18T07:38:31.773Z,96730
2022-12-18T07:39:39.428Z,96728
2022-12-18T07:40:49.290Z,96724
2022-12-18T07:41:58.045Z,96727
2022-12-18T07:43:06.746Z,96723
2022-12-18T07:44:16.451Z,96729
2022-12-18T07:45:25.285Z,96724
2022-12-18T07:46:32.840Z,96729
2022-12-18T07:47:42.533Z,96726
2022-12-18T07:48:51.227Z,96720
2022-12-18T07:49:59.923Z,96721
2022-12-18T07:51:08.734Z,96719
2022-12-18T07:52:21.446Z,96720
2022-12-18T07:53:28.916Z,96717
2022-12-18T07:54:36.583Z,96718
2022-12-18T07:56:18.235Z,96710
2022-12-18T07:56:56.973Z,96711
2022-12-18T07:58:06.665Z,96716
2022-12-18T07:59:15.380Z,96713
2022-12-18T08:00:24.103Z,96716
2022-12-18T08:01:32.922Z,96711
2022-12-18T08:02:42.606Z,96715
2022-12-18T08:03:52.138Z,96720
2022-12-18T08:05:00.828Z,96722
2022-12-18T08:06:10.625Z,96728
2022-12-18T08:07:18.189Z,96723
2022-12-18T08:08:27.888Z,96721
2022-12-18T08:09:36.582Z,96724
2022-12-18T08:10:46.320Z,96724
2022-12-18T08:11:56.006Z,96719
2022-12-18T08:13:05.672Z,96722
2022-12-18T08:14:15.354Z,96725
2022-12-18T08:15:25.019Z,96730
2022-12-18T08:16:33.757Z,96733
2022-12-18T08:17:42.338Z,96739
2022-12-18T08:18:51.034Z,96743
2022-12-18T08:19:59.701Z,96743
2022-12-18T08:21:08.378Z,96744
2022-12-18T08:22:17.186Z,96736
2022-12-18T08:23:28.791Z,96740
2022-12-18T08:24:37.491Z,96741
2022-12-18T08:25:46.165Z,96741
2022-12-18T08:27:13.422Z,96743
2022-12-18T08:28:06.513Z,96745
2022-12-18T08:29:20.015Z,96751
2022-12-18T08:30:24.937Z,96752
2022-12-18T08:31:33.644Z,96750
2022-12-18T08:32:43.286Z,96752
2022-12-18T08:33:52.937Z,96751
2022-12-18T08:35:01.615Z,96750
2022-12-18T08:36:10.320Z,96750
2022-12-18T08:37:20.102Z,96749
2022-12-18T08:38:28.647Z,96748
2022-12-18T08:39:38.328Z,96751
2022-12-18T08:40:48.057Z,96750
2022-12-18T08:41:57.820Z,96752
2022-12-18T08:43:08.481Z,96755
2022-12-18T08:44:17.167Z,96754
2022-12-18T08:45:26.905Z,96755
2022-12-18T08:46:36.662Z,96753
2022-12-18T08:47:44.252Z,96748
2022-12-18T08:48:53.956Z,96752
2022-12-18T08:50:03.703Z,96754
2022-12-18T08:51:12.365Z,96754
2022-12-18T08:52:22.183Z,96754
2022-12-18T08:53:35.409Z,96758
2022-12-18T08:54:40.557Z,96757
2022-12-18T08:55:50.530Z,96758
2022-12-18T08:56:58.938Z,96757
2022-12-18T08:58:07.606Z,96755
2022-12-18T08:59:19.644Z,96755
2022-12-18T09:00:25.034Z,96758
2022-12-18T09:01:35.321Z,96754
2022-12-18T09:02:42.449Z,96756
2022-12-18T09:03:52.018Z,96763
2022-12-18T09:05:01.740Z,96759
2022-12-18T09:06:09.406Z,96759
2022-12-18T09:07:18.071Z,96760
2022-12-18T09:08:26.857Z,96767
2022-12-18T09:09:35.405Z,96764
2022-12-18T09:10:45.126Z,96765
2022-12-18T09:11:52.791Z,96764
2022-12-18T09:13:01.438Z,96766
2022-12-18T09:14:11.109Z,96770
2022-12-18T09:15:18.769Z,96770
2022-12-18T09:16:31.930Z,96771
2022-12-18T09:17:38.158Z,96765
2022-12-18T09:18:46.817Z,96766
2022-12-18T09:19:55.483Z,96766
2022-12-18T09:21:03.167Z,96768
2022-12-18T09:22:12.847Z,96766
2022-12-18T09:23:21.520Z,96766
2022-12-18T09:24:31.294Z,96762
2022-12-18T09:25:40.840Z,96763
2022-12-18T09:26:51.523Z,96761
2022-12-18T09:27:59.217Z,96758
2022-12-18T09:29:08.885Z,96762
2022-12-18T09:30:18.652Z,96758
2022-12-18T09:31:28.340Z,96757
2022-12-18T09:32:36.071Z,96756
2022-12-18T09:33:45.728Z,96754
2022-12-18T09:34:55.411Z,96761
2022-12-18T09:36:04.115Z,96760
2022-12-18T09:37:12.812Z,96764
2022-12-18T09:38:21.472Z,96762
2022-12-18T09:39:30.193Z,96762
2022-12-18T09:40:40.045Z,96766
2022-12-18T09:41:48.618Z,96763
2022-12-18T09:42:58.338Z,96764
2022-12-18T09:44:08.044Z,96765
2022-12-18T09:45:16.802Z,96765
2022-12-18T09:46:25.513Z,96763
2022-12-18T09:47:33.212Z,96770
2022-12-18T09:48:42.346Z,96771
2022-12-18T09:49:51.559Z,96772
2022-12-18T09:51:00.243Z,96768
2022-12-18T09:52:09.903Z,96773
2022-12-18T09:53:19.604Z,96768
2022-12-18T09:54:28.317Z,96761
2022-12-18T09:55:38.017Z,96759
2022-12-18T09:56:48.907Z,96751
2022-12-18T09:57:57.522Z,96751
2022-12-18T09:59:07.222Z,96749
2022-12-18T10:00:16.892Z,96749
2022-12-18T10:01:27.900Z,96749
2022-12-18T10:02:36.409Z,96748
2022-12-18T10:03:44.003Z,96752
2022-12-18T10:04:52.821Z,96750
2022-12-18T10:06:01.424Z,96748
2022-12-18T10:07:10.095Z,96750
2022-12-18T10:08:19.813Z,96745
2022-12-18T10:09:28.530Z,96744
2022-12-18T10:10:38.218Z,96742
2022-12-18T10:11:47.906Z,96737
2022-12-18T10:13:01.067Z,96732
2022-12-18T10:14:06.326Z,96730
2022-12-18T10:15:15.020Z,96732
2022-12-18T10:16:23.776Z,96735
2022-12-18T10:17:33.430Z,96732
2022-12-18T10:18:41.522Z,96730
2022-12-18T10:19:51.121Z,96729
2022-12-18T10:21:01.491Z,96724
2022-12-18T10:22:11.184Z,96723
2022-12-18T10:23:20.872Z,96734
2022-12-18T10:24:30.573Z,96734
2022-12-18T10:25:40.338Z,96723
2022-12-18T10:26:50.020Z,96726
2022-12-18T10:27:58.819Z,96723
2022-12-18T10:29:07.407Z,96723
2022-12-18T10:30:17.128Z,96721
2022-12-18T10:31:25.915Z,96722
2022-12-18T10:32:34.603Z,96720
2022-12-18T10:33:42.325Z,96719
2022-12-18T10:34:56.652Z,96720
2022-12-18T10:36:02.737Z,96711
2022-12-18T10:37:11.442Z,96714
2022-12-18T10:38:21.111Z,96719
2022-12-18T10:39:30.790Z,96709
2022-12-18T10:40:38.472Z,96713
2022-12-18T10:41:48.232Z,96705
2022-12-18T10:42:56.942Z,96702
2022-12-18T10:44:05.719Z,96706
2022-12-18T10:45:14.339Z,96705
2022-12-18T10:46:24.087Z,96712
2022-12-18T10:47:33.718Z,96701
2022-12-18T10:48:44.670Z,96710
2022-12-18T10:49:53.145Z,96711
2022-12-18T10:51:12.462Z,96719
2022-12-18T10:52:13.588Z,96714
2022-12-18T10:53:22.254Z,96711
2022-12-18T10:54:31.968Z,96711
2022-12-18T10:55:40.627Z,96717
2022-12-18T10:56:49.310Z,96712
2022-12-18T10:57:58.990Z,96714
2022-12-18T10:59:07.791Z,96717
2022-12-18T11:00:16.506Z,96711
2022-12-18T11:01:25.219Z,96714
2022-12-18T11:02:35.197Z,96715
2022-12-18T11:03:44.627Z,96713
2022-12-18T11:04:53.251Z,96715
2022-12-18T11:06:02.973Z,96717
2022-12-18T11:07:12.645Z,96713
2022-12-18T11:08:20.304Z,96714
2022-12-18T11:09:28.972Z,96721
2022-12-18T11:10:38.650Z,96720
2022-12-18T11:11:47.385Z,96723
2022-12-18T11:12:57.053Z,96721
2022-12-18T11:14:06.736Z,96713
2022-12-18T11:15:16.581Z,96711
2022-12-18T11:16:26.155Z,96717
2022-12-18T11:17:33.844Z,96721
2022-12-18T11:18:43.870Z,96725
2022-12-18T11:19:52.222Z,96724
2022-12-18T11:21:00.893Z,96727
2022-12-18T11:22:09.558Z,96724
2022-12-18T11:23:19.268Z,96728
2022-12-18T11:24:28.976Z,96720
2022-12-18T11:25:38.705Z,96724
2022-12-18T11:26:47.347Z,96723
2022-12-18T11:27:58.037Z,96720
2022-12-18T11:29:05.735Z,96724
2022-12-18T11:30:14.406Z,96723
2022-12-18T11:31:23.291Z,96724
2022-12-18T11:32:31.808Z,96726
2022-12-18T11:33:53.291Z,96722
2022-12-18T11:34:55.993Z,96722
2022-12-18T11:36:01.837Z,96729
2022-12-18T11:37:11.550Z,96728
2022-12-18T11:38:19.244Z,96731
2022-12-18T11:39:27.913Z,96730
2022-12-18T11:40:41.004Z,96725
2022-12-18T11:41:46.445Z,96718
2022-12-18T11:42:56.110Z,96712
2022-12-18T11:44:04.788Z,96711
2022-12-18T11:45:13.443Z,96709
2022-12-18T11:46:23.232Z,96705
2022-12-18T11:47:31.949Z,96704
2022-12-18T11:48:40.902Z,96697
2022-12-18T11:49:49.204Z,96702
2022-12-18T11:50:57.870Z,96706
2022-12-18T11:52:07.593Z,96697
2022-12-18T11:53:15.305Z,96699
2022-12-18T11:54:23.995Z,96699
2022-12-18T11:55:33.698Z,96698
2022-12-18T11:56:43.412Z,96698
2022-12-18T11:57:52.100Z,96700
2022-12-18T11:59:00.778Z,96697
2022-12-18T12:00:10.059Z,96695
2022-12-18T12:01:19.781Z,96703
2022-12-18T12:02:28.449Z,96699
2022-12-18T12:03:37.523Z,96700
2022-12-18T12:04:46.796Z,96700
2022-12-18T12:05:54.455Z,96699
2022-12-18T12:07:04.170Z,96700
2022-12-18T12:08:13.891Z,96705
2022-12-18T12:09:22.660Z,96703
2022-12-18T12:10:32.334Z,96704
2022-12-18T12:11:40.058Z,96695
2022-12-18T12:12:49.725Z,96699
2022-12-18T12:13:59.434Z,96703
2022-12-18T12:15:08.142Z,96700
2022-12-18T12:16:17.892Z,96692
2022-12-18T12:17:27.515Z,96695
2022-12-18T12:18:36.196Z,96701
2022-12-18T12:19:45.989Z,96701
2022-12-18T12:20:54.607Z,96698
2022-12-18T12:22:03.296Z,96697
2022-12-18T12:23:12.966Z,96692
2022-12-18T12:24:23.776Z,96695
2022-12-18T12:25:31.453Z,96693
2022-12-18T12:26:40.239Z,96691
2022-12-18T12:27:49.940Z,96685
2022-12-18T12:28:59.650Z,96684
2022-12-18T12:30:08.539Z,96680
2022-12-18T12:31:18.067Z,96679
2022-12-18T12:32:27.742Z,96679
2022-12-18T12:33:36.438Z,96676
2022-12-18T12:34:45.112Z,96679
2022-12-18T12:35:55.905Z,96680
2022-12-18T12:37:05.494Z,96675
2022-12-18T12:38:15.191Z,96671
2022-12-18T12:39:24.858Z,96670
2022-12-18T12:40:52.332Z,96671
2022-12-18T12:41:45.186Z,96666
2022-12-18T12:42:53.909Z,96672
2022-12-18T12:44:02.594Z,96669
2022-12-18T12:45:11.242Z,96674
2022-12-18T12:46:20.961Z,96672
2022-12-18T12:47:30.570Z,96671
2022-12-18T12:48:39.504Z,96668
2022-12-18T12:49:47.904Z,96662
2022-12-18T12:50:57.586Z,96658
2022-12-18T12:52:07.384Z,96663
2022-12-18T12:53:17.045Z,96666
2022-12-18T12:54:25.742Z,96669
2022-12-18T12:55:34.447Z,96669
2022-12-18T12:56:44.135Z,96665
2022-12-18T12:57:52.813Z,96663
2022-12-18T12:59:02.493Z,96662
2022-12-18T13:00:12.202Z,96667
2022-12-18T13:01:23.480Z,96667
2022-12-18T13:02:30.634Z,96671
2022-12-18T13:03:39.250Z,96672
2022-12-18T13:04:47.934Z,96671
2022-12-18T13:05:56.619Z,96678
2022-12-18T13:07:05.335Z,96676
2022-12-18T13:08:15.129Z,96673
2022-12-18T13:09:25.670Z,96677
2022-12-18T13:10:35.327Z,96676
2022-12-18T13:11:43.985Z,96677
2022-12-18T13:12:53.703Z,96677
2022-12-18T13:14:03.377Z,96679
2022-12-18T13:15:14.205Z,96676
2022-12-18T13:16:21.910Z,96678
2022-12-18T13:17:31.583Z,96680
2022-12-18T13:18:40.816Z,96690
2022-12-18T13:19:50.062Z,96681
2022-12-18T13:21:02.861Z,96685
2022-12-18T13:22:08.400Z,96686
2022-12-18T13:23:17.104Z,96693
2022-12-18T13:24:26.973Z,96694
2022-12-18T13:25:35.708Z,96689
2022-12-18T13:26:44.433Z,96687
2022-12-18T13:27:54.100Z,96683
2022-12-18T13:29:03.792Z,96694
2022-12-18T13:30:13.541Z,96689
2022-12-18T13:31:23.244Z,96699
2022-12-18T13:32:31.955Z,96693
2022-12-18T13:34:01.908Z,96698
2022-12-18T13:34:51.339Z,96697
2022-12-18T13:36:01.075Z,96701
2022-12-18T13:37:09.698Z,96699
2022-12-18T13:38:18.387Z,96699
2022-12-18T13:39:34.199Z,96696
2022-12-18T13:40:38.872Z,96696
2022-12-18T13:41:48.489Z,96693
2022-12-18T13:42:58.224Z,96695
2022-12-18T13:44:07.919Z,96693
2022-12-18T13:45:17.625Z,96692
2022-12-18T13:46:25.348Z,96690
2022-12-18T13:47:35.194Z,96688
2022-12-18T13:48:44.917Z,96689
2022-12-18T13:49:54.569Z,96690
2022-12-18T13:51:04.240Z,96695
2022-12-18T13:52:12.917Z,96693
2022-12-18T13:53:21.668Z,96693
2022-12-18T13:54:31.454Z,96690
2022-12-18T13:55:40.153Z,96689
2022-12-18T13:56:49.963Z,96686
2022-12-18T13:57:59.534Z,96682
2022-12-18T13:59:08.282Z,96682
2022-12-18T14:00:17.992Z,96679
2022-12-18T14:01:27.820Z,96677
2022-12-18T14:02:37.441Z,96677
2022-12-18T14:03:47.062Z,96674
2022-12-18T14:04:56.756Z,96675
2022-12-18T14:06:05.414Z,96679
2022-12-18T14:07:15.078Z,96678
2022-12-18T14:08:22.739Z,96675
2022-12-18T14:09:31.443Z,96674
2022-12-18T14:10:48.747Z,96672
2022-12-18T14:11:51.997Z,96676
2022-12-18T14:13:02.268Z,96673
2022-12-18T14:14:12.368Z,96682
2022-12-18T14:15:21.153Z,96677
2022-12-18T14:16:30.967Z,96680
2022-12-18T14:17:40.582Z,96683
2022-12-18T14:18:49.263Z,96676
2022-12-18T14:19:57.947Z,96675
2022-12-18T14:21:06.639Z,96674
2022-12-18T14:22:16.372Z,96677
2022-12-18T14:23:26.069Z,96671
2022-12-18T14:24:34.718Z,96680
2022-12-18T14:25:44.446Z,96676
2022-12-18T14:26:52.113Z,96679
2022-12-18T14:28:00.946Z,96678
2022-12-18T14:29:10.528Z,96679
2022-12-18T14:30:19.187Z,96688
2022-12-18T14:31:28.870Z,96693
2022-12-18T14:32:36.529Z,96694
2022-12-18T14:33:46.295Z,96697
2022-12-18T14:34:55.997Z,96697
2022-12-18T14:36:04.702Z,96697
2022-12-18T14:37:13.333Z,96699
2022-12-18T14:38:22.081Z,96697
2022-12-18T14:39:30.741Z,96697
2022-12-18T14:40:40.423Z,96692
2022-12-18T14:41:50.147Z,96694
2022-12-18T14:42:58.818Z,96689
2022-12-18T14:44:08.630Z,96688
2022-12-18T14:45:17.250Z,96684
2022-12-18T14:46:25.994Z,96678
2022-12-18T14:47:34.671Z,96676
2022-12-18T14:48:43.318Z,96681
2022-12-18T14:49:53.025Z,96674